Time;durP1;ratioP1;P1;durP2;ratioP2;P2;SDS_P1;SDS_P2;PMS_P1;PMS_P2;Temp;Humidity;BMP_temperature;BMP_pressure;BME280_temperature;BME280_humidity;BME280_pressure;Samples;Min_cycle;Max_cycle;Signal;HPM_P1;HPM_P2
2023/07/16 00:02:18;;;;;;;11.53;10.10;;;25.30;99.90;;;25.89;66.24;95187.97;5077734;28;20500;-60
2023/07/16 00:04:45;;;;;;;12.20;10.63;;;25.30;99.90;;;25.86;66.07;95191.13;5078058;28;20470;-59
2023/07/16 00:07:13;;;;;;;16.03;10.80;;;25.20;99.90;;;25.82;66.24;95189.91;5077700;28;20882;-68
2023/07/16 00:09:40;;;;;;;16.70;10.17;;;25.20;99.90;;;25.77;65.96;95186.00;5077248;28;20474;-60
2023/07/16 00:12:08;;;;;;;12.27;10.93;;;25.20;99.90;;;25.75;66.63;95182.72;5076255;28;20578;-70
2023/07/16 00:14:35;;;;;;;15.60;10.20;;;25.10;99.90;;;25.72;66.73;95182.38;5080301;28;20975;-68
2023/07/16 00:17:03;;;;;;;15.03;10.00;;;25.10;99.90;;;25.68;66.62;95182.00;5073358;28;20477;-59
2023/07/16 00:19:31;;;;;;;12.20;9.40;;;25.10;99.90;;;25.66;66.72;95183.28;5075213;28;20494;-68
2023/07/16 00:21:59;;;;;;;15.40;9.67;;;25.10;99.90;;;25.64;66.90;95182.66;5076436;28;20970;-67
2023/07/16 00:24:26;;;;;;;24.77;12.07;;;25.00;99.90;;;25.61;66.69;95180.41;5079038;28;20457;-59
2023/07/16 00:26:54;;;;;;;11.93;10.27;;;25.00;99.90;;;25.56;67.10;95179.25;5069128;28;20447;-59
2023/07/16 00:29:21;;;;;;;17.47;10.07;;;24.90;99.90;;;25.54;66.72;95185.91;5077428;28;20453;-67
2023/07/16 00:31:48;;;;;;;11.33;9.60;;;24.90;99.90;;;25.49;67.29;95185.78;5076690;28;20490;-59
2023/07/16 00:34:15;;;;;;;11.07;10.03;;;24.90;99.90;;;25.45;67.42;95179.19;5078384;28;20449;-60
2023/07/16 00:36:44;;;;;;;18.73;9.97;;;24.80;99.90;;;25.40;67.55;95183.34;5074954;28;20555;-67
2023/07/16 00:39:11;;;;;;;16.43;10.50;;;24.80;99.90;;;25.37;67.24;95183.81;5076352;28;20449;-67
2023/07/16 00:41:38;;;;;;;19.03;10.20;;;24.80;99.90;;;25.35;67.28;95185.09;5074706;28;20524;-60
2023/07/16 00:44:06;;;;;;;14.30;9.73;;;24.70;99.90;;;25.32;67.36;95182.84;5081851;28;20837;-67
2023/07/16 00:46:33;;;;;;;11.90;10.73;;;24.70;99.90;;;25.31;67.76;95181.19;5073152;28;20496;-68
2023/07/16 00:49:00;;;;;;;13.33;9.17;;;24.70;99.90;;;25.27;67.37;95186.19;5080961;28;20457;-67
2023/07/16 00:51:27;;;;;;;14.17;10.30;;;24.70;99.90;;;25.25;67.45;95190.94;5072011;28;20567;-60
2023/07/16 00:53:56;;;;;;;18.27;10.07;;;24.70;99.90;;;25.24;67.82;95178.56;5072200;28;20447;-58
2023/07/16 00:56:23;;;;;;;18.67;10.67;;;24.60;99.90;;;25.22;68.10;95186.00;5070560;28;20474;-59
2023/07/16 00:58:50;;;;;;;12.13;10.17;;;24.60;99.90;;;25.20;68.12;95185.44;5074640;28;20450;-61
2023/07/16 01:01:18;;;;;;;18.03;10.47;;;24.60;99.90;;;25.17;67.73;95180.50;5073855;28;20489;-60
2023/07/16 01:03:45;;;;;;;17.80;10.87;;;24.50;99.90;;;25.16;67.80;95178.84;5076246;28;20503;-69
2023/07/16 01:06:15;;;;;;;13.13;10.27;;;24.50;99.90;;;25.12;68.10;95175.78;5076811;28;21630;-60
2023/07/16 01:08:46;;;;;;;16.13;11.97;;;24.50;99.90;;;25.12;67.80;95177.66;5073675;28;20519;-60
2023/07/16 01:11:15;;;;;;;13.10;10.13;;;24.50;99.90;;;25.10;67.99;95175.19;5073908;28;20872;-67
2023/07/16 01:13:42;;;;;;;24.87;10.77;;;24.50;99.90;;;25.09;68.34;95178.09;5070602;28;20454;-68
2023/07/16 01:16:20;;;;;;;11.37;10.20;;;24.50;99.90;;;25.07;68.56;95181.00;5073692;28;20544;-68
2023/07/16 01:18:48;;;;;;;25.07;10.23;;;24.40;99.90;;;25.05;68.56;95177.69;5070443;28;20529;-60
2023/07/16 01:21:15;;;;;;;15.97;10.83;;;24.50;99.90;;;25.03;68.55;95183.31;5076440;28;20480;-69
2023/07/16 01:24:01;;;;;;;11.93;9.80;;;24.40;99.90;;;25.01;68.94;95182.72;5075689;28;20470;-67
2023/07/16 01:26:40;;;;;;;13.27;10.93;;;24.40;99.90;;;25.00;68.66;95186.47;5074814;28;20466;-68
2023/07/16 01:29:29;;;;;;;14.77;10.70;;;24.40;99.90;;;24.97;69.18;95173.47;5074798;28;20445;-69
2023/07/16 01:31:57;;;;;;;11.63;10.53;;;24.40;99.90;;;24.94;68.90;95181.97;5071340;28;20883;-67
2023/07/16 01:34:25;;;;;;;12.83;10.70;;;24.40;99.90;;;24.91;68.35;95174.34;5079680;28;20538;-61
2023/07/16 01:36:52;;;;;;;19.67;10.30;;;24.30;99.90;;;24.89;68.79;95168.34;5071264;28;20450;-59
2023/07/16 01:39:19;;;;;;;14.37;11.07;;;24.30;99.90;;;24.88;68.60;95177.47;5079377;28;20503;-68
2023/07/16 01:41:47;;;;;;;17.50;11.60;;;24.30;99.90;;;24.87;69.29;95181.22;5074019;28;21404;-60
2023/07/16 01:44:14;;;;;;;13.27;9.87;;;24.30;99.90;;;24.85;69.30;95184.13;5077879;28;21033;-68
2023/07/16 01:46:42;;;;;;;13.33;10.80;;;24.30;99.90;;;24.85;68.97;95183.31;5075926;28;20550;-68
2023/07/16 01:49:10;;;;;;;19.90;10.73;;;24.30;99.90;;;24.83;69.21;95183.53;5076271;28;20450;-59
2023/07/16 01:51:37;;;;;;;14.70;10.93;;;24.30;99.90;;;24.82;69.60;95178.38;5072750;28;20497;-59
2023/07/16 01:54:04;;;;;;;18.27;10.67;;;24.20;99.90;;;24.80;69.63;95181.28;5069473;28;20446;-59
2023/07/16 01:56:33;;;;;;;13.13;11.23;;;24.20;99.90;;;24.80;69.37;95188.50;5077058;28;20478;-61
2023/07/16 01:59:00;;;;;;;15.23;10.43;;;24.20;99.90;;;24.78;69.26;95185.22;5080281;28;20488;-59
2023/07/16 02:01:27;;;;;;;17.60;10.70;;;24.20;99.90;;;24.77;69.71;95183.56;5075606;28;20990;-66
2023/07/16 02:03:56;;;;;;;15.73;11.13;;;24.20;99.90;;;24.75;69.27;95178.41;5076763;28;20472;-59
2023/07/16 02:06:23;;;;;;;11.07;9.97;;;24.10;99.90;;;24.73;68.91;95191.28;5075743;28;20515;-68
2023/07/16 02:08:50;;;;;;;17.13;12.30;;;24.10;99.90;;;24.70;69.35;95195.22;5076609;28;20494;-68
2023/07/16 02:11:18;;;;;;;15.03;11.17;;;24.10;99.90;;;24.68;69.25;95186.56;5079012;28;20492;-59
2023/07/16 02:13:45;;;;;;;12.43;11.23;;;24.10;99.90;;;24.65;69.78;95187.00;5073639;28;20454;-60
2023/07/16 02:16:12;;;;;;;11.93;10.57;;;24.10;99.90;;;24.64;69.39;95182.66;5077083;28;20465;-68
2023/07/16 02:18:39;;;;;;;18.30;12.80;;;24.10;99.90;;;24.64;69.63;95187.22;5072169;28;20465;-67
2023/07/16 02:21:08;;;;;;;14.23;11.33;;;24.10;99.90;;;24.63;69.83;95185.56;5076491;28;20469;-68
2023/07/16 02:23:35;;;;;;;15.50;11.50;;;24.00;99.90;;;24.61;68.97;95188.47;5074873;28;20826;-60
2023/07/16 02:26:02;;;;;;;11.13;9.83;;;24.00;99.90;;;24.59;69.39;95193.25;5073299;28;20461;-69
2023/07/16 02:28:30;;;;;;;11.87;10.67;;;24.00;99.90;;;24.59;69.34;95190.56;5069950;28;20546;-67
2023/07/16 02:30:57;;;;;;;21.73;10.80;;;24.00;99.90;;;24.59;70.05;95198.63;5075258;28;20481;-59
2023/07/16 02:33:24;;;;;;;12.27;10.60;;;24.00;99.90;;;24.60;69.36;95194.06;5075104;28;20508;-68
2023/07/16 02:35:52;;;;;;;18.10;10.07;;;24.00;99.90;;;24.60;69.68;95192.22;5076541;28;20535;-67
2023/07/16 02:38:21;;;;;;;17.57;10.40;;;24.00;99.90;;;24.61;69.98;95198.41;5077604;28;20454;-59
2023/07/16 02:40:48;;;;;;;16.67;9.83;;;24.00;99.90;;;24.61;70.05;95191.16;5080587;28;20480;-59
2023/07/16 02:43:15;;;;;;;13.83;10.67;;;24.00;99.90;;;24.61;69.33;95193.84;5076226;28;20857;-69
2023/07/16 02:45:43;;;;;;;14.30;10.97;;;24.00;99.90;;;24.61;69.75;95188.47;5083688;28;21004;-68
2023/07/16 02:48:10;;;;;;;13.73;11.43;;;24.00;99.90;;;24.60;69.99;95197.59;5073349;28;20446;-60
2023/07/16 02:50:38;;;;;;;13.03;11.73;;;24.00;99.90;;;24.60;69.98;95202.97;5079573;28;20468;-69
2023/07/16 02:53:06;;;;;;;14.30;11.57;;;24.00;99.90;;;24.59;69.72;95201.31;5072711;28;20539;-69
2023/07/16 02:55:35;;;;;;;17.07;11.43;;;24.00;99.90;;;24.59;69.94;95198.63;5078216;28;20530;-68
2023/07/16 02:58:04;;;;;;;12.40;10.17;;;24.00;99.90;;;24.58;70.03;95196.16;5072526;28;20877;-68
2023/07/16 03:00:31;;;;;;;18.63;11.40;;;24.00;99.90;;;24.57;69.86;95203.41;5077334;28;20474;-69
2023/07/16 03:02:59;;;;;;;13.33;10.83;;;24.00;99.90;;;24.55;69.54;95208.13;5079701;28;20453;-69
2023/07/16 03:05:26;;;;;;;15.70;10.10;;;24.00;99.90;;;24.51;69.96;95199.69;5078872;28;20476;-68
2023/07/16 03:07:54;;;;;;;13.27;10.53;;;23.90;99.90;;;24.52;69.59;95208.56;5079353;28;20510;-69
2023/07/16 03:10:22;;;;;;;16.33;11.50;;;24.00;99.90;;;24.48;69.54;95202.00;5080569;28;20474;-66
2023/07/16 03:12:50;;;;;;;15.50;11.73;;;23.90;99.90;;;24.43;69.55;95208.03;5077005;28;21039;-60
2023/07/16 03:15:17;;;;;;;13.70;11.03;;;23.90;99.90;;;24.39;69.42;95211.38;5075866;28;20471;-59
2023/07/16 03:17:45;;;;;;;13.60;10.57;;;23.80;99.90;;;24.36;69.63;95211.81;5071847;28;20946;-60
2023/07/16 03:20:13;;;;;;;17.00;10.80;;;23.80;99.90;;;24.33;69.27;95207.69;5076668;28;20553;-60
2023/07/16 03:22:40;;;;;;;13.40;11.30;;;23.80;99.90;;;24.30;69.72;95205.44;5076315;28;21033;-60
2023/07/16 03:25:09;;;;;;;17.60;11.60;;;23.70;99.90;;;24.28;69.49;95211.03;5075851;28;20476;-60
2023/07/16 03:27:36;;;;;;;13.50;11.00;;;23.70;99.90;;;24.25;69.88;95211.47;5075142;28;20525;-69
2023/07/16 03:30:06;;;;;;;11.63;9.83;;;23.70;99.90;;;24.16;69.42;95213.56;5077941;28;20481;-68
2023/07/16 03:32:33;;;;;;;11.67;10.47;;;23.60;99.90;;;24.09;70.04;95223.56;5075449;28;20852;-60
2023/07/16 03:35:01;;;;;;;12.10;9.97;;;23.60;99.90;;;24.05;69.18;95216.13;5075224;28;20471;-68
2023/07/16 03:37:28;;;;;;;16.83;10.37;;;23.50;99.90;;;24.04;70.05;95219.84;5078407;28;20447;-69
2023/07/16 03:39:55;;;;;;;14.53;11.10;;;23.50;99.90;;;24.06;69.99;95220.47;5076987;28;20861;-69
2023/07/16 03:42:22;;;;;;;11.43;10.23;;;23.50;99.90;;;24.08;69.37;95218.41;5073693;28;20447;-68
2023/07/16 03:44:50;;;;;;;13.80;10.30;;;23.50;99.90;;;24.08;69.62;95224.59;5072675;28;21013;-58
2023/07/16 03:47:18;;;;;;;12.47;11.07;;;23.50;99.90;;;24.11;69.16;95220.66;5077424;28;20512;-67
2023/07/16 03:49:45;;;;;;;14.87;10.60;;;23.50;99.90;;;24.14;69.04;95222.91;5075803;28;21006;-68
2023/07/16 03:52:13;;;;;;;11.50;9.40;;;23.50;99.90;;;24.16;69.81;95223.50;5076889;28;20486;-59
2023/07/16 03:54:40;;;;;;;21.80;10.10;;;23.60;99.90;;;24.16;68.83;95228.88;5077009;28;22347;-59
2023/07/16 03:57:07;;;;;;;13.70;10.00;;;23.60;99.90;;;24.20;69.43;95226.56;5075894;28;20466;-58
2023/07/16 03:59:35;;;;;;;13.63;9.90;;;23.60;99.90;;;24.24;69.40;95225.13;5078940;28;20848;-68
2023/07/16 04:02:02;;;;;;;10.70;9.50;;;23.70;99.90;;;24.25;68.67;95234.84;5078201;28;20503;-59
2023/07/16 04:04:31;;;;;;;14.20;9.57;;;23.70;99.90;;;24.27;69.46;95228.19;5074017;28;20458;-67
2023/07/16 04:06:58;;;;;;;11.00;9.37;;;23.70;99.90;;;24.30;68.96;95230.44;5081486;28;21188;-68
2023/07/16 04:09:25;;;;;;;13.47;9.80;;;23.70;99.90;;;24.34;69.14;95233.53;5076401;28;20458;-59
2023/07/16 04:11:52;;;;;;;14.53;9.20;;;23.80;99.90;;;24.38;68.90;95232.03;5080059;28;20493;-67
2023/07/16 04:14:20;;;;;;;19.80;10.53;;;23.80;99.90;;;24.43;68.91;95242.16;5075731;28;20455;-68
2023/07/16 04:16:47;;;;;;;11.27;9.67;;;23.80;99.90;;;24.48;68.57;95239.66;5078838;28;20453;-68
2023/07/16 04:19:14;;;;;;;15.53;8.23;;;23.90;99.90;;;24.51;68.06;95234.66;5079194;28;20519;-64
2023/07/16 04:21:43;;;;;;;8.83;8.00;;;23.90;99.90;;;24.56;67.90;95234.00;5076821;28;20465;-60
2023/07/16 04:24:10;;;;;;;11.70;7.03;;;24.00;99.90;;;24.63;67.55;95239.34;5078740;28;20445;-59
2023/07/16 04:26:38;;;;;;;13.23;6.93;;;24.00;99.90;;;24.67;67.31;95230.63;5071616;28;20462;-68
2023/07/16 04:29:05;;;;;;;13.23;7.00;;;24.10;99.90;;;24.72;67.15;95238.03;5079063;28;20449;-70
2023/07/16 04:31:32;;;;;;;9.80;7.50;;;24.10;99.90;;;24.78;66.72;95236.34;5073908;28;20552;-69
2023/07/16 04:33:59;;;;;;;11.93;6.33;;;24.20;99.90;;;24.84;66.43;95247.03;5072296;28;20527;-68
2023/07/16 04:36:26;;;;;;;7.37;6.67;;;24.20;99.90;;;24.88;66.37;95248.25;5074290;28;21002;-61
2023/07/16 04:38:55;;;;;;;11.47;7.00;;;24.30;99.90;;;24.96;66.56;95244.47;5078476;28;20446;-62
2023/07/16 04:41:22;;;;;;;6.60;5.93;;;24.30;99.90;;;25.01;66.26;95255.38;5076056;28;20462;-59
2023/07/16 04:43:49;;;;;;;8.23;5.70;;;24.40;99.90;;;25.04;65.80;95256.81;5077356;28;20450;-58
2023/07/16 04:46:17;;;;;;;11.17;7.30;;;24.40;99.90;;;25.08;65.96;95259.88;5076713;28;20470;-59
2023/07/16 04:48:44;;;;;;;12.83;8.77;;;24.50;99.90;;;25.14;65.99;95257.13;5072982;28;21017;-60
2023/07/16 04:51:11;;;;;;;14.13;7.13;;;24.50;99.90;;;25.20;65.68;95261.63;5073504;28;20722;-60
2023/07/16 04:53:38;;;;;;;17.97;7.53;;;24.60;99.90;;;25.26;65.52;95251.03;5070586;28;20821;-69
2023/07/16 04:56:13;;;;;;;8.57;4.93;;;24.70;99.90;;;25.30;65.07;95258.47;5074778;28;20478;-59
2023/07/16 04:58:40;;;;;;;16.00;6.33;;;24.70;99.90;;;25.34;64.64;95251.56;5079050;28;21017;-68
2023/07/16 05:01:08;;;;;;;9.20;6.90;;;24.80;99.90;;;25.41;64.86;95248.84;5080982;28;20530;-59
2023/07/16 05:03:35;;;;;;;8.07;7.07;;;24.80;99.90;;;25.48;64.50;95259.53;5075224;28;20468;-59
2023/07/16 05:06:03;;;;;;;13.47;6.37;;;24.90;99.90;;;25.53;64.68;95259.66;5075988;28;20470;-59
2023/07/16 05:08:30;;;;;;;8.70;5.67;;;24.90;99.90;;;25.59;64.38;95264.16;5076369;28;20481;-61
2023/07/16 05:10:58;;;;;;;12.07;7.20;;;25.00;99.90;;;25.65;64.39;95248.97;5075296;28;20531;-60
2023/07/16 05:13:27;;;;;;;10.70;6.47;;;25.00;99.90;;;25.73;64.11;95259.44;5078906;28;20500;-59
2023/07/16 05:15:54;;;;;;;10.10;6.60;;;25.10;99.90;;;25.80;63.89;95259.38;5075524;28;20528;-69
2023/07/16 05:18:22;;;;;;;8.53;6.17;;;25.20;99.90;;;25.85;63.92;95262.22;5079893;28;20449;-68
2023/07/16 05:20:49;;;;;;;10.30;5.87;;;25.20;99.90;;;25.88;63.28;95251.00;5073932;28;20477;-60
2023/07/16 05:23:16;;;;;;;6.70;6.10;;;25.30;99.90;;;25.97;62.90;95263.09;5077824;28;20450;-69
2023/07/16 05:25:48;;;;;;;7.40;5.03;;;25.40;99.90;;;26.05;62.81;95259.31;5076875;28;20519;-69
2023/07/16 05:28:15;;;;;;;5.60;5.10;;;25.40;99.90;;;26.20;62.32;95258.91;5071253;28;20533;-59
2023/07/16 05:30:43;;;;;;;10.80;6.10;;;25.50;99.90;;;26.36;61.70;95265.53;5076181;28;21065;-70
2023/07/16 05:33:11;;;;;;;6.50;5.50;;;25.70;99.90;;;26.52;61.09;95272.13;5074644;28;20512;-68
2023/07/16 05:35:38;;;;;;;8.07;6.27;;;25.80;99.90;;;26.64;60.79;95268.41;5079804;28;20526;-59
2023/07/16 05:38:06;;;;;;;11.53;4.80;;;26.00;99.90;;;26.80;60.97;95275.06;5075082;28;20515;-71
2023/07/16 05:40:33;;;;;;;6.17;5.57;;;26.10;99.90;;;26.97;60.13;95271.69;5073505;28;20989;-61
2023/07/16 05:43:01;;;;;;;5.93;5.20;;;26.30;99.90;;;27.14;59.89;95274.50;5073258;28;20526;-69
2023/07/16 05:45:28;;;;;;;15.03;5.57;;;26.40;99.50;;;27.29;59.01;95276.75;5071122;28;20843;-69
2023/07/16 05:47:56;;;;;;;8.73;5.67;;;26.60;99.10;;;27.46;58.87;95276.91;5075824;28;20553;-60
2023/07/16 05:50:24;;;;;;;15.17;5.83;;;26.70;98.80;;;27.64;58.79;95274.06;5070981;28;21058;-60
2023/07/16 05:52:51;;;;;;;7.57;5.83;;;26.90;98.50;;;27.80;57.92;95277.91;5068624;28;20481;-61
2023/07/16 05:55:18;;;;;;;9.57;6.90;;;27.10;98.00;;;27.93;57.30;95282.22;5073737;28;21043;-60
2023/07/16 05:57:46;;;;;;;11.37;6.60;;;27.20;97.60;;;28.10;56.80;95281.50;5073887;28;20880;-60
2023/07/16 06:00:14;;;;;;;9.00;6.13;;;27.30;97.40;;;28.25;56.96;95273.69;5082602;28;20481;-60
2023/07/16 06:02:41;;;;;;;13.83;5.30;;;27.50;97.00;;;28.40;56.03;95286.72;5073751;28;20450;-61
2023/07/16 06:05:10;;;;;;;6.60;5.67;;;27.60;96.60;;;28.56;55.43;95279.69;5080308;28;20465;-70
2023/07/16 06:07:38;;;;;;;8.80;4.60;;;27.80;95.90;;;28.72;55.37;95280.81;5069865;28;20637;-60
2023/07/16 06:10:06;;;;;;;13.20;7.13;;;27.90;95.80;;;28.89;54.62;95283.53;5079784;28;20526;-59
2023/07/16 06:12:34;;;;;;;8.53;5.13;;;28.10;95.30;;;29.03;54.65;95289.44;5076748;28;20289;-68
2023/07/16 06:15:01;;;;;;;7.70;4.73;;;28.30;94.90;;;29.15;54.00;95287.47;5082579;28;20230;-67
2023/07/16 06:17:28;;;;;;;7.27;5.67;;;28.40;94.70;;;29.23;53.59;95284.38;5077676;28;20527;-60
2023/07/16 06:19:57;;;;;;;9.80;5.13;;;28.50;94.20;;;29.32;53.96;95282.91;5081187;28;20280;-59
2023/07/16 06:22:26;;;;;;;10.00;5.03;;;28.60;93.90;;;29.45;53.19;95284.47;5081224;28;20658;-67
2023/07/16 06:24:53;;;;;;;5.93;4.73;;;28.70;93.80;;;29.59;53.81;95286.81;5078213;28;20603;-67
2023/07/16 06:27:20;;;;;;;14.50;6.30;;;28.80;93.50;;;29.74;53.34;95283.50;5072227;28;20196;-60
2023/07/16 06:29:47;;;;;;;8.30;5.10;;;28.90;93.00;;;29.85;52.31;95285.28;5074402;28;20850;-69
2023/07/16 06:32:14;;;;;;;8.17;6.00;;;29.10;92.60;;;29.94;51.91;95289.19;5072424;28;20236;-59
2023/07/16 06:34:42;;;;;;;10.43;6.10;;;29.20;92.10;;;29.99;51.60;95281.16;5080880;28;20327;-70
2023/07/16 06:37:09;;;;;;;13.17;6.50;;;29.20;92.00;;;30.13;52.15;95278.88;5080047;28;20643;-69
2023/07/16 06:39:38;;;;;;;6.73;6.10;;;29.30;92.00;;;30.31;51.88;95282.31;5082472;28;20204;-60
2023/07/16 06:42:06;;;;;;;13.30;5.27;;;29.50;91.70;;;30.49;51.43;95268.44;5077065;28;20306;-68
2023/07/16 06:44:33;;;;;;;5.43;4.47;;;29.60;91.50;;;30.62;50.24;95267.19;5079421;28;20722;-61
2023/07/16 06:47:01;;;;;;;8.40;5.90;;;29.80;90.60;;;30.75;50.89;95271.38;5080113;28;20206;-62
2023/07/16 06:49:28;;;;;;;7.13;5.27;;;29.90;90.40;;;30.87;50.98;95273.94;5079038;28;20204;-60
2023/07/16 06:51:56;;;;;;;6.70;4.87;;;30.10;90.50;;;31.04;50.74;95271.13;5076813;28;20230;-70
2023/07/16 06:54:23;;;;;;;7.80;5.25;;;30.20;90.20;;;31.19;49.55;95273.16;5074026;28;20249;-61
2023/07/16 06:56:52;;;;;;;6.00;5.50;;;30.40;89.30;;;31.27;49.49;95272.66;5082940;28;20304;-70
2023/07/16 06:59:19;;;;;;;10.57;5.28;;;30.50;87.60;;;31.29;48.94;95273.22;5080275;28;20214;-61
2023/07/16 07:01:46;;;;;;;5.80;5.20;;;30.60;87.30;;;31.34;48.83;95270.56;5078733;28;20242;-60
2023/07/16 07:04:14;;;;;;;7.45;4.93;;;30.70;86.80;;;31.45;49.01;95274.16;5077123;28;20668;-60
2023/07/16 07:06:41;;;;;;;10.48;5.13;;;30.70;86.30;;;31.59;48.98;95274.56;5081014;28;20316;-61
2023/07/16 07:09:08;;;;;;;6.10;5.28;;;30.80;86.20;;;31.75;48.18;95278.97;5076871;28;20200;-60
2023/07/16 07:11:35;;;;;;;11.82;6.07;;;30.90;85.60;;;31.88;47.70;95276.88;5079133;28;20287;-69
2023/07/16 07:14:04;;;;;;;8.55;5.80;;;31.10;84.40;;;32.01;47.55;95265.50;5076968;28;20235;-70
2023/07/16 07:16:31;;;;;;;5.72;5.15;;;31.20;83.60;;;32.17;47.34;95269.13;5079703;28;20223;-60
2023/07/16 07:18:59;;;;;;;7.80;6.18;;;31.40;83.70;;;32.22;47.34;95271.88;5076330;28;20285;-70
2023/07/16 07:21:26;;;;;;;7.03;6.15;;;31.50;82.80;;;32.27;46.65;95274.63;5082225;28;20226;-68
2023/07/16 07:23:53;;;;;;;5.78;5.07;;;31.50;81.10;;;32.34;46.90;95274.38;5075083;28;20208;-61
2023/07/16 07:26:21;;;;;;;6.00;5.22;;;31.60;81.80;;;32.48;46.79;95269.22;5074559;28;20220;-70
2023/07/16 07:28:48;;;;;;;7.45;5.28;;;31.60;81.80;;;32.61;46.59;95268.72;5074883;28;20274;-72
2023/07/16 07:31:16;;;;;;;16.58;5.57;;;31.80;81.40;;;32.69;46.30;95264.69;5081541;28;20885;-70
2023/07/16 07:33:44;;;;;;;6.85;6.25;;;31.90;81.00;;;32.66;46.13;95267.94;5078609;28;20258;-69
2023/07/16 07:36:11;;;;;;;6.88;5.32;;;31.90;80.20;;;32.72;46.44;95260.56;5085727;28;20235;-69
2023/07/16 07:38:38;;;;;;;8.73;5.03;;;31.90;80.20;;;32.86;46.45;95264.44;5076877;28;20204;-70
2023/07/16 07:41:06;;;;;;;6.20;5.40;;;32.00;80.20;;;33.06;46.21;95258.13;5080148;28;20703;-62
2023/07/16 07:43:33;;;;;;;6.68;6.07;;;32.20;79.90;;;33.23;45.56;95269.63;5080312;28;20253;-60
2023/07/16 07:46:01;;;;;;;9.85;6.88;;;32.30;79.30;;;33.36;45.49;95268.25;5077958;28;20264;-61
2023/07/16 07:48:29;;;;;;;10.18;6.28;;;32.50;78.30;;;33.39;45.23;95261.44;5079931;28;20199;-70
2023/07/16 07:50:57;;;;;;;5.72;5.28;;;32.50;78.00;;;33.50;45.32;95257.59;5073838;28;20310;-70
2023/07/16 07:53:24;;;;;;;8.70;5.32;;;32.60;78.90;;;33.72;45.18;95259.22;5071639;28;20219;-71
2023/07/16 07:55:51;;;;;;;6.18;5.63;;;32.80;78.00;;;33.91;44.23;95260.25;5072595;28;20228;-61
2023/07/16 07:58:18;;;;;;;8.73;5.82;;;33.00;76.70;;;34.03;44.73;95256.38;5076421;28;20744;-62
2023/07/16 08:00:46;;;;;;;27.75;7.22;;;33.20;75.90;;;34.17;44.63;95257.41;5078467;28;20297;-70
2023/07/16 08:03:13;;;;;;;6.85;6.20;;;33.30;75.20;;;34.29;43.78;95257.09;5078938;28;20208;-72
2023/07/16 08:05:41;;;;;;;17.10;7.00;;;33.40;74.70;;;34.48;43.52;95257.28;5077716;28;20224;-71
2023/07/16 08:08:09;;;;;;;6.75;5.70;;;33.60;74.60;;;34.66;43.47;95251.16;5079438;28;20199;-61
2023/07/16 08:10:36;;;;;;;10.20;5.30;;;33.80;73.40;;;34.76;42.50;95257.69;5075608;28;20319;-71
2023/07/16 08:13:03;;;;;;;9.70;6.80;;;33.80;72.70;;;34.80;42.24;95258.75;5082350;28;20231;-70
2023/07/16 08:15:30;;;;;;;7.00;5.97;;;33.90;71.60;;;34.79;42.69;95254.38;5074114;28;20261;-61
2023/07/16 08:17:59;;;;;;;10.68;7.38;;;34.00;71.20;;;34.74;42.93;95255.19;5081272;28;20307;-60
2023/07/16 08:20:27;;;;;;;11.68;6.88;;;34.00;70.80;;;34.78;42.87;95255.47;5073529;28;20231;-59
2023/07/16 08:22:55;;;;;;;10.63;7.03;;;34.00;70.60;;;34.79;42.32;95255.19;5079967;28;20256;-60
2023/07/16 08:25:23;;;;;;;7.00;6.35;;;34.00;70.30;;;34.91;42.47;95256.75;5077338;28;20277;-62
2023/07/16 08:27:50;;;;;;;12.52;7.45;;;34.10;70.40;;;35.05;41.90;95256.94;5073707;28;20578;-71
2023/07/16 08:30:17;;;;;;;10.57;6.75;;;34.20;69.70;;;35.10;41.36;95251.41;5077104;28;20258;-60
2023/07/16 08:32:44;;;;;;;11.63;6.95;;;34.20;69.20;;;35.17;41.36;95258.19;5079060;28;20227;-69
2023/07/16 08:35:16;;;;;;;21.58;6.47;;;34.30;69.40;;;35.26;41.29;95255.69;5075975;28;20220;-60
2023/07/16 08:37:43;;;;;;;11.43;8.25;;;34.40;69.10;;;35.43;40.71;95255.25;5077916;28;20228;-70
2023/07/16 08:40:13;;;;;;;7.50;6.80;;;34.50;68.70;;;35.65;40.76;95253.91;5074886;28;20263;-69
2023/07/16 08:42:41;;;;;;;9.32;6.70;;;34.70;68.50;;;35.89;40.79;95253.97;5080145;28;20210;-69
2023/07/16 08:45:10;;;;;;;9.60;6.93;;;34.90;68.00;;;35.98;40.63;95257.69;5075424;28;20316;-72
2023/07/16 08:47:37;;;;;;;9.27;6.47;;;35.10;67.20;;;36.12;40.45;95257.78;5081470;28;20200;-72
2023/07/16 08:50:06;;;;;;;13.98;7.43;;;35.20;66.50;;;36.22;40.04;95252.19;5075387;28;20228;-61
2023/07/16 08:52:33;;;;;;;10.10;7.38;;;35.40;65.90;;;36.23;39.71;95253.81;5071540;28;20196;-70
2023/07/16 08:55:00;;;;;;;9.93;7.05;;;35.40;65.00;;;36.25;39.44;95253.50;5073114;28;20666;-70
2023/07/16 08:57:29;;;;;;;10.40;8.07;;;35.50;64.60;;;36.30;39.74;95256.22;5076981;28;20593;-60
2023/07/16 08:59:56;;;;;;;8.65;7.60;;;35.50;64.00;;;36.30;39.28;95241.69;5103742;28;20661;-63
2023/07/16 09:02:24;;;;;;;9.45;6.50;;;35.50;64.50;;;36.43;40.08;95247.25;5074203;28;20223;-60
2023/07/16 09:04:52;;;;;;;9.85;6.75;;;35.60;65.00;;;36.66;39.61;95242.03;5079811;28;20777;-61
2023/07/16 09:07:19;;;;;;;19.30;7.63;;;35.80;64.90;;;36.89;39.42;95239.50;5074106;28;20290;-69
2023/07/16 09:09:59;;;;;;;12.55;8.13;;;36.00;64.80;;;37.14;38.96;95236.34;5078903;28;20215;-71
2023/07/16 09:12:27;;;;;;;8.27;7.10;;;36.20;64.00;;;37.36;39.18;95239.59;5072450;28;20742;-61
2023/07/16 09:14:55;;;;;;;9.10;6.75;;;36.40;63.30;;;37.44;38.42;95236.13;5080153;28;20238;-60
2023/07/16 09:17:23;;;;;;;9.40;7.32;;;36.50;62.30;;;37.40;38.10;95233.19;5074018;28;20208;-61
2023/07/16 09:19:51;;;;;;;13.40;8.02;;;36.60;61.50;;;37.25;37.94;95234.28;5078442;28;20228;-69
2023/07/16 09:22:19;;;;;;;14.63;7.63;;;36.50;60.80;;;37.13;37.89;95226.47;5077335;28;20709;-60
2023/07/16 09:24:47;;;;;;;12.68;6.78;;;36.30;61.00;;;37.09;38.52;95230.13;5077436;28;20842;-71
2023/07/16 09:27:14;;;;;;;8.32;7.53;;;36.30;61.60;;;37.19;38.40;95235.44;5068160;28;20232;-60
2023/07/16 09:29:43;;;;;;;9.88;7.88;;;36.30;61.20;;;37.30;38.18;95219.66;5077979;28;20223;-60
2023/07/16 09:32:10;;;;;;;14.80;8.88;;;36.40;61.20;;;37.33;37.92;95237.44;5074971;28;20200;-70
2023/07/16 09:34:37;;;;;;;12.18;7.68;;;36.40;60.50;;;37.25;37.61;95227.97;5077140;28;20235;-70
2023/07/16 09:37:06;;;;;;;11.57;8.68;;;36.40;60.20;;;37.14;37.56;95228.13;5075253;28;20257;-70
2023/07/16 09:39:33;;;;;;;9.10;8.20;;;36.40;59.70;;;37.10;37.78;95229.81;5076148;28;20230;-69
2023/07/16 09:42:01;;;;;;;10.82;8.70;;;36.30;59.70;;;37.23;37.79;95225.53;5074146;28;20204;-61
2023/07/16 09:44:28;;;;;;;9.27;8.38;;;36.40;60.20;;;37.42;37.40;95225.47;5079169;28;20203;-61
2023/07/16 09:46:57;;;;;;;9.68;7.95;;;36.50;59.70;;;37.40;37.12;95222.22;5073384;28;20207;-70
2023/07/16 09:49:25;;;;;;;13.52;7.78;;;36.50;59.20;;;37.28;37.27;95219.16;5080517;28;20218;-70
2023/07/16 09:51:52;;;;;;;11.50;8.27;;;36.50;59.20;;;37.16;37.74;95224.28;5072006;28;20247;-61
2023/07/16 09:54:19;;;;;;;11.27;8.75;;;36.40;59.20;;;37.05;37.71;95218.94;5070277;28;20224;-61
2023/07/16 09:56:49;;;;;;;13.02;8.88;;;36.30;59.10;;;36.89;37.68;95217.56;5078485;28;20636;-69
2023/07/16 09:59:17;;;;;;;10.57;7.70;;;36.20;59.30;;;36.77;38.07;95207.88;5081785;28;20194;-60
2023/07/16 10:01:44;;;;;;;13.15;8.98;;;36.10;59.60;;;36.78;38.03;95215.00;5071221;28;20232;-62
2023/07/16 10:04:15;;;;;;;10.90;9.10;;;36.00;59.50;;;36.89;37.67;95201.94;5071252;28;20265;-69
2023/07/16 10:06:55;;;;;;;20.48;8.98;;;36.10;59.10;;;36.91;37.40;95209.88;5077049;28;20284;-70
2023/07/16 10:09:36;;;;;;;11.57;8.75;;;36.10;59.00;;;36.91;37.53;95207.13;5077441;28;20203;-73
2023/07/16 10:12:17;;;;;;;9.93;8.93;;;36.10;58.60;;;36.88;37.49;95202.25;5072808;28;20752;-61
2023/07/16 10:14:46;;;;;;;33.65;8.65;;;36.10;58.80;;;36.85;37.53;95205.59;5080708;28;20242;-60
2023/07/16 10:17:17;;;;;;;13.50;8.65;;;36.10;59.00;;;36.86;38.11;95190.78;5071570;28;20261;-70